Facebook Twitter

Wetterstation Reutte

aktuelles Wetter
  Temperatur Wetter Niederschlag Luftdruck Wind
Fr, 10:00 Uhr -10° - 0 mm 1022.9 hPa 4 km/h NO
Fr, 09:00 Uhr -14° - 0 mm 1024.3 hPa 4 km/h SW
Fr, 08:00 Uhr -16° - 0 mm 1024.7 hPa 4 km/h W
Fr, 07:00 Uhr -14° - 0 mm 1023.6 hPa 4 km/h SW
Fr, 06:00 Uhr -14° - 0 mm 1023.4 hPa 0 km/h SW
Fr, 05:00 Uhr -14° - 0 mm 1022.9 hPa 4 km/h SW
Fr, 04:00 Uhr -15° - 0 mm 1022.6 hPa 4 km/h NO
Fr, 03:00 Uhr -13° - 0 mm 1022.2 hPa 7 km/h W
Fr, 02:00 Uhr -12° - 0 mm 1021.5 hPa 4 km/h N
Fr, 01:00 Uhr -12° - 0 mm 1021 hPa 4 km/h W
Fr, 00:00 Uhr -10° - 0 mm 1020.1 hPa 4 km/h SW
Do, 23:00 Uhr -9° - 0 mm 1019.7 hPa 11 km/h S
Do, 22:00 Uhr -10° - 0 mm 1020 hPa 7 km/h SW
Do, 21:00 Uhr -9° - 0 mm 1019.3 hPa 7 km/h S
Do, 20:00 Uhr -10° - 0 mm 1019.5 hPa 7 km/h SW
Do, 19:00 Uhr -9° - 0 mm 1018.9 hPa 11 km/h S
Do, 18:00 Uhr -8° - 0 mm 1018.6 hPa 4 km/h SW
Do, 17:00 Uhr -8° - 0 mm 1018.1 hPa 11 km/h S
Do, 16:00 Uhr -5° - 0 mm 1016.9 hPa 7 km/h SW
Do, 15:00 Uhr -4° - 0 mm 1016.2 hPa 4 km/h SW

Alle Zeitangaben MEZ